Time;durP1;ratioP1;P1;durP2;ratioP2;P2;SDS_P1;SDS_P2;PMS_P1;PMS_P2;Temp;Humidity;BMP_temperature;BMP_pressure;BME280_temperature;BME280_humidity;BME280_pressure;Samples;Min_cycle;Max_cycle;Signal;HPM_P1;HPM_P2
2023/12/06 00:00:01;;;;;;;0.88;0.88;;;;;;;2.98;89.87;97864.25;5012398;28;20095;-76
2023/12/06 00:02:26;;;;;;;0.90;0.90;;;;;;;3.05;89.74;97867.22;5010008;28;20638;-77
2023/12/06 00:04:51;;;;;;;1.00;1.00;;;;;;;2.99;89.55;97863.41;5009837;28;20038;-76
2023/12/06 00:07:17;;;;;;;0.90;0.90;;;;;;;2.92;89.76;97862.22;5012136;28;20037;-76
2023/12/06 00:09:42;;;;;;;0.90;0.90;;;;;;;3.01;89.45;97867.91;5008970;28;20049;-76
2023/12/06 00:12:11;;;;;;;0.90;0.90;;;;;;;2.98;90.09;97864.25;5010400;28;20041;-77
2023/12/06 00:14:36;;;;;;;0.90;0.90;;;;;;;3.04;90.12;97867.16;5009981;28;20042;-76
2023/12/06 00:17:02;;;;;;;0.90;0.90;;;;;;;2.99;89.61;97866.97;5011062;28;20357;-77
2023/12/06 00:19:27;;;;;;;0.90;0.90;;;;;;;2.97;89.23;97868.63;5011091;28;20156;-77
2023/12/06 00:21:53;;;;;;;1.00;1.00;;;;;;;2.99;89.23;97866.97;5009782;28;20056;-76
2023/12/06 00:24:19;;;;;;;0.90;0.90;;;;;;;2.99;89.20;97874.84;5008456;28;20132;-77
2023/12/06 00:26:46;;;;;;;0.90;0.90;;;;;;;3.11;89.39;97863.03;5010044;28;20358;-76
2023/12/06 00:29:11;;;;;;;0.88;0.88;;;;;;;3.03;89.09;97868.91;5010231;28;20037;-77
2023/12/06 00:31:37;;;;;;;1.00;1.00;;;;;;;3.02;89.48;97869.75;5011122;28;20099;-77
2023/12/06 00:34:02;;;;;;;1.00;1.00;;;;;;;3.12;89.12;97868.41;5010177;28;20153;-77
2023/12/06 00:36:29;;;;;;;1.00;1.00;;;;;;;3.03;89.69;97874.16;5011127;28;20486;-78
2023/12/06 00:38:54;;;;;;;1.00;1.00;;;;;;;3.07;89.52;97869.94;5011147;28;20038;-76
2023/12/06 00:41:20;;;;;;;0.90;0.90;;;;;;;3.09;89.21;97877.06;5010154;28;20053;-78
2023/12/06 00:43:51;;;;;;;1.00;1.00;;;;;;;3.11;88.43;97877.13;5011206;28;20033;-76
2023/12/06 00:46:19;;;;;;;1.00;1.00;;;;;;;3.06;88.98;97873.38;5013146;28;20034;-76
2023/12/06 00:48:45;;;;;;;0.90;0.90;;;;;;;3.00;89.12;97883.66;5009789;28;20046;-77
2023/12/06 00:51:12;;;;;;;1.00;1.00;;;;;;;3.03;89.24;97884.72;5011691;28;20057;-76
2023/12/06 00:53:38;;;;;;;0.90;0.90;;;;;;;3.05;89.39;97883.03;5008571;28;20120;-76
2023/12/06 00:56:11;;;;;;;1.00;1.00;;;;;;;3.11;88.35;97882.38;5012918;28;20439;-76
2023/12/06 00:58:36;;;;;;;1.00;1.00;;;;;;;3.04;88.82;97882.97;5008215;28;20064;-76
2023/12/06 01:01:02;;;;;;;1.00;1.00;;;;;;;3.04;89.02;97888.25;5011743;28;20732;-76
2023/12/06 01:03:27;;;;;;;0.90;0.90;;;;;;;2.97;89.80;97884.44;5017925;28;20080;-76
2023/12/06 01:05:54;;;;;;;0.93;0.93;;;;;;;2.96;89.53;97884.34;5010014;28;20077;-76
2023/12/06 01:08:19;;;;;;;1.00;1.00;;;;;;;2.97;90.10;97894.97;5016822;28;20082;-76
2023/12/06 01:10:45;;;;;;;1.00;1.00;;;;;;;3.04;90.22;97896.16;5007853;28;20278;-76
2023/12/06 01:13:10;;;;;;;1.00;1.00;;;;;;;2.98;90.16;97896.78;5010754;28;20034;-76
2023/12/06 01:15:36;;;;;;;0.98;0.98;;;;;;;2.95;91.21;97895.72;5008957;28;20845;-77
2023/12/06 01:18:02;;;;;;;1.00;1.00;;;;;;;3.05;89.96;97906.75;5012375;28;20069;-76
2023/12/06 01:20:27;;;;;;;0.90;0.90;;;;;;;3.07;89.08;97898.94;5007817;28;20395;-76
2023/12/06 01:22:52;;;;;;;0.90;0.90;;;;;;;3.06;88.81;97907.63;5013365;28;20041;-76
2023/12/06 01:25:18;;;;;;;0.90;0.90;;;;;;;3.01;89.78;97903.91;5009351;28;20038;-76
2023/12/06 01:27:43;;;;;;;0.90;0.90;;;;;;;3.09;88.85;97902.53;5010915;28;20068;-76
2023/12/06 01:30:09;;;;;;;1.00;1.00;;;;;;;2.93;89.21;97914.13;5008325;28;20084;-77
2023/12/06 01:32:35;;;;;;;1.00;1.00;;;;;;;2.94;89.54;97921.19;5011312;28;20038;-77
2023/12/06 01:35:00;;;;;;;1.00;1.00;;;;;;;2.95;89.94;97920.34;5011373;28;20041;-77
2023/12/06 01:37:26;;;;;;;0.90;0.90;;;;;;;2.92;90.23;97932.47;5011473;28;20474;-76
2023/12/06 01:39:51;;;;;;;1.00;1.00;;;;;;;3.03;89.56;97928.59;5006849;28;20069;-76
2023/12/06 01:42:16;;;;;;;0.93;0.93;;;;;;;3.09;89.37;97939.41;5009787;28;20148;-77
2023/12/06 01:44:42;;;;;;;1.02;1.02;;;;;;;3.01;89.57;97933.78;5008676;28;20042;-77
2023/12/06 01:47:07;;;;;;;1.00;1.00;;;;;;;3.08;89.11;97938.50;5008049;28;20034;-77
2023/12/06 01:49:36;;;;;;;0.90;0.90;;;;;;;3.08;88.61;97934.97;4994677;28;20038;-77
2023/12/06 01:52:02;;;;;;;1.00;1.00;;;;;;;3.01;90.01;97938.16;5012243;28;20042;-77
2023/12/06 01:54:28;;;;;;;1.00;1.00;;;;;;;3.01;90.12;97939.06;5011086;28;20034;-77
2023/12/06 01:56:55;;;;;;;1.00;1.00;;;;;;;3.02;89.95;97934.72;5012332;28;20132;-77
2023/12/06 01:59:21;;;;;;;1.00;1.00;;;;;;;2.99;89.78;97934.56;5016478;28;20057;-77
2023/12/06 02:01:46;;;;;;;1.00;1.00;;;;;;;2.97;90.08;97931.88;5011180;28;20121;-77
2023/12/06 02:04:16;;;;;;;1.00;1.00;;;;;;;2.91;90.37;97938.56;5006878;28;20133;-76
2023/12/06 02:06:42;;;;;;;0.95;0.95;;;;;;;2.94;90.04;97941.34;5009931;28;20148;-77
2023/12/06 02:09:08;;;;;;;1.10;1.10;;;;;;;2.92;90.77;97935.09;5010938;28;20443;-77
2023/12/06 02:11:34;;;;;;;1.10;1.10;;;;;;;2.97;90.55;97944.13;4997353;28;20026;-77
2023/12/06 02:14:00;;;;;;;0.90;0.90;;;;;;;2.90;90.50;97936.78;5008891;28;20033;-77
2023/12/06 02:16:25;;;;;;;1.00;1.00;;;;;;;2.96;90.15;97942.31;5011278;28;20049;-77
2023/12/06 02:18:51;;;;;;;0.90;0.90;;;;;;;2.90;90.87;97940.31;5012403;28;20676;-77
2023/12/06 02:21:17;;;;;;;0.90;0.90;;;;;;;2.91;90.80;97936.84;5012884;28;20148;-77
2023/12/06 02:23:45;;;;;;;1.00;1.00;;;;;;;2.90;90.72;97945.56;5013824;28;20033;-77
2023/12/06 02:26:10;;;;;;;1.00;1.00;;;;;;;2.89;90.60;97949.03;5017355;28;20038;-77
2023/12/06 02:28:36;;;;;;;1.00;1.00;;;;;;;2.86;90.78;97942.72;5011996;28;20045;-76
2023/12/06 02:31:02;;;;;;;0.90;0.90;;;;;;;2.88;90.96;97951.63;5012609;28;20065;-77
2023/12/06 02:33:31;;;;;;;1.10;1.10;;;;;;;2.89;91.73;97950.78;5014492;28;20041;-77
2023/12/06 02:36:00;;;;;;;1.00;1.00;;;;;;;2.96;90.69;97944.94;5027726;28;20726;-77
2023/12/06 02:38:26;;;;;;;1.00;1.00;;;;;;;2.94;89.92;97944.88;5013130;28;20068;-77
2023/12/06 02:40:53;;;;;;;0.90;0.90;;;;;;;2.91;90.69;97942.09;5012550;28;20402;-77
2023/12/06 02:43:19;;;;;;;1.05;1.05;;;;;;;2.91;90.47;97946.47;5017223;28;20394;-77
2023/12/06 02:45:45;;;;;;;0.90;0.90;;;;;;;2.83;90.75;97954.94;5017906;28;20507;-77
2023/12/06 02:48:10;;;;;;;1.00;1.00;;;;;;;2.85;90.97;97943.56;5015411;28;20049;-77
2023/12/06 02:50:36;;;;;;;1.00;1.00;;;;;;;2.87;91.18;97941.88;5013083;28;20283;-77
2023/12/06 02:53:01;;;;;;;0.98;0.98;;;;;;;2.85;91.43;97941.84;5014838;28;20060;-77
2023/12/06 02:55:27;;;;;;;1.00;1.00;;;;;;;2.92;91.37;97940.38;5016330;28;20438;-77
2023/12/06 02:57:52;;;;;;;0.90;0.90;;;;;;;2.88;91.01;97934.09;5009000;28;20135;-78
2023/12/06 03:00:18;;;;;;;1.00;1.00;;;;;;;2.89;91.28;97932.34;5010794;28;20101;-77
2023/12/06 03:02:46;;;;;;;1.00;1.00;;;;;;;2.86;91.35;97933.09;5013344;28;20045;-77
2023/12/06 03:05:11;;;;;;;0.90;0.90;;;;;;;2.88;91.36;97934.09;5016491;28;20061;-77
2023/12/06 03:07:37;;;;;;;0.80;0.80;;;;;;;2.91;91.51;97928.03;5013795;28;20546;-78
2023/12/06 03:10:03;;;;;;;1.00;1.00;;;;;;;2.89;91.63;97938.50;5010283;28;20479;-78
2023/12/06 03:12:29;;;;;;;0.90;0.90;;;;;;;2.83;91.25;97936.50;5011855;28;20061;-77
2023/12/06 03:14:54;;;;;;;0.90;0.90;;;;;;;2.86;91.69;97935.72;5010696;28;20204;-78
2023/12/06 03:17:19;;;;;;;0.90;0.90;;;;;;;2.83;92.19;97939.13;5011728;28;20795;-78
2023/12/06 03:19:47;;;;;;;0.90;0.90;;;;;;;2.93;91.99;97934.28;5012411;28;20037;-78
2023/12/06 03:22:13;;;;;;;1.00;1.00;;;;;;;2.91;92.02;97933.31;5012294;28;20056;-77
2023/12/06 03:24:38;;;;;;;0.90;0.90;;;;;;;3.00;91.35;97939.00;5010732;28;20057;-77
2023/12/06 03:27:03;;;;;;;1.00;1.00;;;;;;;2.93;91.07;97935.19;5012070;28;20034;-78
2023/12/06 03:29:29;;;;;;;0.90;0.90;;;;;;;2.92;91.32;97937.72;5014277;28;20495;-78
2023/12/06 03:31:55;;;;;;;1.00;1.00;;;;;;;2.89;90.94;97940.25;5012707;28;20044;-77
2023/12/06 03:34:20;;;;;;;0.90;0.90;;;;;;;2.92;91.32;97940.38;5009669;28;20048;-78
2023/12/06 03:36:46;;;;;;;0.98;0.98;;;;;;;2.92;91.57;97943.00;5012357;28;20475;-77
2023/12/06 03:39:12;;;;;;;1.00;1.00;;;;;;;3.01;91.07;97943.41;5017874;28;20060;-77
2023/12/06 03:41:40;;;;;;;0.90;0.90;;;;;;;3.13;90.26;97937.81;5011295;28;20231;-78
2023/12/06 03:44:06;;;;;;;0.90;0.90;;;;;;;3.01;90.20;97933.78;5012960;28;20034;-78
2023/12/06 03:46:31;;;;;;;0.90;0.90;;;;;;;2.96;90.87;97937.94;5011076;28;20088;-78
2023/12/06 03:48:57;;;;;;;0.90;0.90;;;;;;;2.97;90.82;97941.47;5010785;28;20061;-78
2023/12/06 03:51:28;;;;;;;0.90;0.90;;;;;;;2.95;91.12;97944.06;5013185;28;20041;-78
2023/12/06 03:53:53;;;;;;;1.00;1.00;;;;;;;2.96;91.04;97945.84;5011472;28;20483;-78
2023/12/06 03:56:19;;;;;;;0.90;0.90;;;;;;;3.01;90.73;97946.97;5009610;28;20041;-78
2023/12/06 03:58:44;;;;;;;0.80;0.80;;;;;;;3.01;90.38;97944.31;5014254;28;20037;-78
2023/12/06 04:01:12;;;;;;;0.90;0.90;;;;;;;3.01;91.36;97943.41;5009979;28;20116;-78
2023/12/06 04:03:40;;;;;;;0.90;0.90;;;;;;;3.03;90.93;97939.16;5009917;28;20042;-78
2023/12/06 04:06:07;;;;;;;0.90;0.90;;;;;;;3.00;90.66;97939.88;5008449;28;20050;-78
2023/12/06 04:08:32;;;;;;;1.00;1.00;;;;;;;2.99;91.30;97945.09;5012244;28;20057;-78
2023/12/06 04:10:58;;;;;;;0.88;0.88;;;;;;;3.02;91.13;97946.16;5011614;28;20243;-78
2023/12/06 04:13:23;;;;;;;0.90;0.90;;;;;;;3.11;90.62;97944.75;5008786;28;20037;-78
2023/12/06 04:15:48;;;;;;;1.00;1.00;;;;;;;2.99;90.31;97945.09;5016973;28;20083;-78
2023/12/06 04:18:14;;;;;;;0.90;0.90;;;;;;;3.08;89.76;97940.25;4993859;28;20080;-78
2023/12/06 04:20:39;;;;;;;0.90;0.90;;;;;;;3.12;89.38;97946.56;5009381;28;20377;-77
2023/12/06 04:23:05;;;;;;;0.80;0.80;;;;;;;3.03;90.18;97942.69;5010474;28;20041;-78
2023/12/06 04:25:30;;;;;;;0.90;0.90;;;;;;;3.00;90.49;97946.91;5009847;28;20412;-78
2023/12/06 04:27:55;;;;;;;0.90;0.90;;;;;;;2.98;90.89;97952.09;5010627;28;20042;-78
2023/12/06 04:30:21;;;;;;;0.90;0.90;;;;;;;3.01;90.24;97951.31;5009102;28;20073;-77
2023/12/06 04:32:46;;;;;;;1.00;1.00;;;;;;;3.14;90.20;97956.34;5010999;28;20037;-77
2023/12/06 04:35:12;;;;;;;0.90;0.90;;;;;;;3.09;89.89;97963.13;5007195;28;20040;-78
2023/12/06 04:37:37;;;;;;;0.90;0.90;;;;;;;3.04;90.62;97959.38;5012665;28;20029;-77
2023/12/06 04:40:07;;;;;;;1.00;1.00;;;;;;;3.03;90.22;97963.75;5010695;28;20045;-77
2023/12/06 04:42:32;;;;;;;1.00;1.00;;;;;;;3.02;90.08;97964.59;5009749;28;20038;-77
2023/12/06 04:44:58;;;;;;;0.90;0.90;;;;;;;3.01;90.94;97970.66;5017433;28;20774;-78
2023/12/06 04:47:23;;;;;;;0.95;0.95;;;;;;;3.00;91.29;97967.97;5010940;28;20041;-78
2023/12/06 04:49:49;;;;;;;0.90;0.90;;;;;;;3.09;91.04;97973.66;5010987;28;20052;-78
2023/12/06 04:52:14;;;;;;;0.90;0.90;;;;;;;3.07;90.94;97970.97;5010671;28;20348;-78
2023/12/06 04:54:39;;;;;;;0.98;0.98;;;;;;;3.00;91.32;97966.25;5012686;28;20037;-78
2023/12/06 04:57:05;;;;;;;0.82;0.82;;;;;;;3.04;91.09;97970.81;5010574;28;20507;-78
2023/12/06 04:59:33;;;;;;;0.90;0.90;;;;;;;2.99;91.41;97972.34;5012897;28;20048;-78
2023/12/06 05:01:58;;;;;;;0.90;0.90;;;;;;;3.00;91.40;97979.41;5026190;28;20167;-78
2023/12/06 05:04:24;;;;;;;0.90;0.90;;;;;;;3.01;91.30;97983.84;5011955;28;20123;-78
2023/12/06 05:06:49;;;;;;;0.85;0.85;;;;;;;3.03;90.41;97983.94;5012472;28;20038;-78
2023/12/06 05:09:15;;;;;;;0.80;0.80;;;;;;;3.02;91.23;97983.03;5010607;28;20071;-78
2023/12/06 05:11:40;;;;;;;1.00;1.00;;;;;;;2.99;90.69;97982.88;5010166;28;20070;-78
2023/12/06 05:14:06;;;;;;;0.90;0.90;;;;;;;3.02;91.32;97984.78;5012472;28;20040;-78
2023/12/06 05:16:31;;;;;;;0.90;0.90;;;;;;;3.01;91.74;97990.84;5013752;28;20043;-78
2023/12/06 05:18:57;;;;;;;0.90;0.90;;;;;;;2.99;91.55;97984.63;5009701;28;20048;-78
2023/12/06 05:21:22;;;;;;;0.90;0.90;;;;;;;3.12;90.05;97991.38;5010491;28;20052;-78
2023/12/06 05:23:49;;;;;;;0.90;0.90;;;;;;;3.12;90.42;97992.28;5012749;28;20033;-78
2023/12/06 05:26:14;;;;;;;1.00;1.00;;;;;;;3.13;90.18;97987.91;5011421;28;20077;-77
2023/12/06 05:28:40;;;;;;;0.90;0.90;;;;;;;3.12;89.78;97989.63;5004721;28;20060;-77
2023/12/06 05:31:05;;;;;;;0.90;0.90;;;;;;;3.07;89.92;97991.16;5007642;28;20089;-76
2023/12/06 05:33:31;;;;;;;0.90;0.90;;;;;;;3.05;90.26;97988.44;5010610;28;20037;-77
2023/12/06 05:35:56;;;;;;;0.90;0.90;;;;;;;3.17;89.93;97989.84;5009145;28;20030;-77
2023/12/06 05:38:22;;;;;;;0.90;0.90;;;;;;;3.15;89.24;97997.66;5011736;28;20484;-78
2023/12/06 05:40:49;;;;;;;0.90;0.90;;;;;;;3.23;88.74;97992.75;5012405;28;20026;-78
2023/12/06 05:43:14;;;;;;;1.10;1.10;;;;;;;3.27;88.42;97992.06;5014082;28;20488;-77
2023/12/06 05:45:40;;;;;;;1.00;1.00;;;;;;;3.25;87.82;97997.25;5007593;28;20115;-77
2023/12/06 05:48:05;;;;;;;0.90;0.90;;;;;;;3.23;87.49;97998.03;5009080;28;20709;-77
2023/12/06 05:50:31;;;;;;;1.00;1.00;;;;;;;3.22;88.25;97998.88;5014518;28;20664;-77
2023/12/06 05:52:57;;;;;;;0.90;0.90;;;;;;;3.22;88.32;97998.88;5017656;28;20652;-77
2023/12/06 05:55:23;;;;;;;0.90;0.90;;;;;;;3.26;88.74;97999.06;5010944;28;20067;-77
2023/12/06 05:57:48;;;;;;;0.95;0.95;;;;;;;3.33;87.09;97995.88;5010056;28;20041;-77
2023/12/06 06:00:15;;;;;;;1.00;1.00;;;;;;;3.24;87.94;98000.72;5012451;28;20042;-77
2023/12/06 06:02:43;;;;;;;1.00;1.00;;;;;;;3.25;88.18;97997.25;5026500;28;20140;-76
2023/12/06 06:05:09;;;;;;;0.95;0.95;;;;;;;3.26;88.61;97995.53;5012648;28;20092;-77
2023/12/06 06:07:34;;;;;;;1.00;1.00;;;;;;;3.29;88.00;98001.84;5013896;28;20056;-76
2023/12/06 06:10:00;;;;;;;0.90;0.90;;;;;;;3.33;87.82;97995.88;5014665;28;20046;-76
2023/12/06 06:12:25;;;;;;;0.98;0.98;;;;;;;3.25;88.48;98001.63;5014580;28;20071;-76
2023/12/06 06:14:50;;;;;;;0.90;0.90;;;;;;;3.19;89.39;98002.25;5013063;28;20064;-76
2023/12/06 06:17:16;;;;;;;0.90;0.90;;;;;;;3.20;88.84;98001.41;5011195;28;20501;-77
2023/12/06 06:19:42;;;;;;;0.90;0.90;;;;;;;3.23;88.58;98003.31;5014412;28;20469;-77
2023/12/06 06:22:07;;;;;;;0.90;0.90;;;;;;;3.26;88.30;98009.63;5008374;28;20052;-76
2023/12/06 06:24:33;;;;;;;0.80;0.80;;;;;;;3.30;87.52;98011.53;5011443;28;20550;-76
2023/12/06 06:26:58;;;;;;;0.90;0.90;;;;;;;3.32;87.23;98009.91;5011298;28;20034;-76
2023/12/06 06:29:24;;;;;;;0.90;0.90;;;;;;;3.37;87.11;98011.84;5014199;28;20376;-76
2023/12/06 06:31:49;;;;;;;0.90;0.90;;;;;;;3.39;86.81;98016.34;5011277;28;20152;-76
2023/12/06 06:34:14;;;;;;;0.90;0.90;;;;;;;3.49;86.23;98009.75;5010246;28;20042;-76
2023/12/06 06:36:40;;;;;;;0.90;0.90;;;;;;;3.46;86.77;98017.53;5009024;28;20045;-76
2023/12/06 06:39:05;;;;;;;0.90;0.90;;;;;;;3.48;86.83;98027.31;5011801;28;20044;-77
2023/12/06 06:41:31;;;;;;;1.00;1.00;;;;;;;3.35;87.88;98022.28;5012862;28;20408;-76
2023/12/06 06:43:56;;;;;;;0.90;0.90;;;;;;;3.33;87.49;98019.59;5012072;28;20046;-76
2023/12/06 06:46:21;;;;;;;0.90;0.90;;;;;;;3.32;87.18;98025.72;5011438;28;20083;-76
2023/12/06 06:48:48;;;;;;;0.90;0.90;;;;;;;3.36;86.91;98031.13;5011469;28;20071;-76
2023/12/06 06:51:14;;;;;;;0.93;0.93;;;;;;;3.27;87.44;98036.88;5014393;28;20339;-77
2023/12/06 06:53:40;;;;;;;1.00;1.00;;;;;;;3.33;87.86;98034.53;5011976;28;20080;-77
2023/12/06 06:56:05;;;;;;;0.90;0.90;;;;;;;3.26;88.59;98037.72;5017551;28;20065;-77
2023/12/06 06:58:31;;;;;;;1.00;1.00;;;;;;;3.23;88.25;98034.94;5014499;28;20085;-77
2023/12/06 07:00:56;;;;;;;1.00;1.00;;;;;;;3.34;87.36;98031.94;5012207;28;20061;-77
2023/12/06 07:03:23;;;;;;;0.90;0.90;;;;;;;3.26;87.80;98040.34;5012295;28;20095;-77
2023/12/06 07:05:48;;;;;;;1.00;1.00;;;;;;;3.27;87.57;98052.69;5014305;28;20034;-76
2023/12/06 07:08:14;;;;;;;0.90;0.90;;;;;;;3.24;88.56;98048.16;5011373;28;20063;-77
2023/12/06 07:10:47;;;;;;;1.00;1.00;;;;;;;3.29;88.15;98049.28;5011139;28;20037;-77
2023/12/06 07:13:13;;;;;;;1.00;1.00;;;;;;;3.29;87.92;98051.91;5011657;28;20038;-77
2023/12/06 07:15:38;;;;;;;0.93;0.93;;;;;;;3.33;88.59;98052.97;5011985;28;20524;-77
2023/12/06 07:18:04;;;;;;;0.90;0.90;;;;;;;3.24;88.77;98055.19;5012936;28;20116;-77
2023/12/06 07:20:29;;;;;;;0.90;0.90;;;;;;;3.29;88.50;98058.94;5013211;28;20404;-77
2023/12/06 07:22:56;;;;;;;0.90;0.90;;;;;;;3.29;88.06;98057.19;5015494;28;20049;-79
2023/12/06 07:25:22;;;;;;;0.90;0.90;;;;;;;3.44;87.20;98057.00;4998434;28;20508;-78
2023/12/06 07:27:47;;;;;;;0.90;0.90;;;;;;;3.33;87.89;98059.16;5013146;28;20044;-77
2023/12/06 07:30:19;;;;;;;0.90;0.90;;;;;;;3.32;88.24;98065.25;5012640;28;20041;-76
2023/12/06 07:32:45;;;;;;;0.90;0.90;;;;;;;3.59;85.93;98069.97;5011745;28;20073;-76
2023/12/06 07:35:11;;;;;;;0.90;0.90;;;;;;;3.46;86.38;98070.28;5013667;28;20053;-77
2023/12/06 07:37:36;;;;;;;0.90;0.90;;;;;;;3.51;85.84;98074.91;5011629;28;20041;-77
2023/12/06 07:40:03;;;;;;;1.00;1.00;;;;;;;3.48;86.34;98079.16;5011279;28;20030;-77
2023/12/06 07:42:29;;;;;;;0.95;0.95;;;;;;;3.41;87.19;98085.88;5013012;28;20060;-77
2023/12/06 07:44:54;;;;;;;0.90;0.90;;;;;;;3.38;87.33;98092.75;5013698;28;20033;-77
2023/12/06 07:47:20;;;;;;;0.90;0.90;;;;;;;3.51;86.53;98092.47;5011219;28;20523;-77
2023/12/06 07:49:45;;;;;;;0.98;0.98;;;;;;;3.45;86.99;98089.53;5011946;28;20042;-77
2023/12/06 07:52:11;;;;;;;0.90;0.90;;;;;;;3.52;85.98;98100.44;5010340;28;20038;-77
2023/12/06 07:54:37;;;;;;;1.00;1.00;;;;;;;3.77;84.29;98099.84;5018788;28;20052;-77
2023/12/06 07:57:02;;;;;;;1.00;1.00;;;;;;;3.77;83.70;98094.56;5014962;28;20058;-77
2023/12/06 07:59:28;;;;;;;0.90;0.90;;;;;;;3.78;83.31;98106.00;5012650;28;20033;-77
2023/12/06 08:01:55;;;;;;;0.90;0.90;;;;;;;3.83;84.01;98107.13;5009533;28;20519;-77
2023/12/06 08:04:20;;;;;;;;;;;;;;;3.64;85.27;98108.03;5012900;28;20491;-77
2023/12/06 08:06:46;;;;;;;0.93;0.93;;;;;;;3.59;85.56;98115.75;5010973;28;19972;-77
2023/12/06 08:09:12;;;;;;;0.90;0.90;;;;;;;3.60;85.54;98116.66;5013242;28;20111;-78
2023/12/06 08:11:41;;;;;;;1.00;1.00;;;;;;;3.57;85.65;98120.03;5011340;28;20042;-77
2023/12/06 08:14:07;;;;;;;1.00;1.00;;;;;;;3.70;85.17;98129.41;5011569;28;20045;-77
2023/12/06 08:16:32;;;;;;;1.00;1.00;;;;;;;3.71;84.67;98120.66;5013930;28;20041;-78
2023/12/06 08:18:58;;;;;;;1.00;1.00;;;;;;;3.83;83.34;98137.06;5008655;28;20072;-78
2023/12/06 08:21:24;;;;;;;1.00;1.00;;;;;;;3.85;83.97;98135.38;5012552;28;20052;-78
2023/12/06 08:23:50;;;;;;;1.00;1.00;;;;;;;3.84;83.48;98137.97;5011079;28;20049;-76
2023/12/06 08:26:15;;;;;;;1.00;1.00;;;;;;;3.83;83.51;98137.06;5011069;28;20844;-76
2023/12/06 08:28:43;;;;;;;1.00;1.00;;;;;;;3.85;83.52;98134.50;5015471;28;20575;-76
2023/12/06 08:31:08;;;;;;;1.00;1.00;;;;;;;3.85;83.63;98132.75;5011609;28;20040;-76
2023/12/06 08:33:35;;;;;;;0.90;0.90;;;;;;;3.78;83.39;98133.28;5009885;28;20088;-76
2023/12/06 08:36:00;;;;;;;1.03;1.03;;;;;;;3.84;82.91;98143.25;5019671;28;20103;-79
2023/12/06 08:38:26;;;;;;;1.00;1.00;;;;;;;3.90;83.13;98147.91;5007111;28;20325;-76
2023/12/06 08:40:51;;;;;;;1.00;1.00;;;;;;;3.91;82.29;98147.97;5012856;28;20446;-76
2023/12/06 08:43:17;;;;;;;1.00;1.00;;;;;;;3.93;82.31;98148.94;5012261;28;20061;-76
2023/12/06 08:45:45;;;;;;;1.00;1.00;;;;;;;3.89;82.79;98159.28;5013564;28;20049;-77
2023/12/06 08:48:11;;;;;;;0.90;0.90;;;;;;;3.90;83.47;98155.81;5017850;28;20088;-77
2023/12/06 08:50:37;;;;;;;1.00;1.00;;;;;;;3.91;82.91;98147.06;5012603;28;20700;-77
2023/12/06 08:53:03;;;;;;;1.00;1.00;;;;;;;3.85;83.51;98161.78;5011138;28;20658;-77
2023/12/06 08:55:28;;;;;;;0.90;0.90;;;;;;;3.85;83.39;98168.78;5011697;28;20041;-76
2023/12/06 08:57:53;;;;;;;1.00;1.00;;;;;;;3.77;84.11;98171.06;5010029;28;20144;-78
2023/12/06 09:00:19;;;;;;;0.90;0.90;;;;;;;3.79;84.08;98176.44;5008714;28;20069;-76
2023/12/06 09:02:44;;;;;;;1.00;1.00;;;;;;;3.78;84.44;98183.41;5013317;28;20049;-77
2023/12/06 09:05:11;;;;;;;1.00;1.00;;;;;;;3.75;84.53;98183.31;5012528;28;20049;-76
2023/12/06 09:07:40;;;;;;;1.10;1.10;;;;;;;3.82;84.09;98185.38;5009396;28;20824;-77
2023/12/06 09:10:08;;;;;;;1.00;1.00;;;;;;;3.63;84.85;98172.16;5011889;28;20494;-77
2023/12/06 09:12:33;;;;;;;0.90;0.90;;;;;;;3.56;84.98;98184.16;5014706;28;20034;-77
2023/12/06 09:14:59;;;;;;;0.90;0.90;;;;;;;3.54;85.38;98191.09;5018122;28;20057;-78
2023/12/06 09:17:24;;;;;;;0.90;0.90;;;;;;;3.49;85.20;98191.69;5013272;28;20071;-76
2023/12/06 09:19:51;;;;;;;0.90;0.90;;;;;;;3.48;84.76;98201.34;5011210;28;20110;-77
2023/12/06 09:22:20;;;;;;;1.08;1.08;;;;;;;3.32;85.44;98209.34;5010830;28;20052;-77
2023/12/06 09:24:48;;;;;;;1.00;1.00;;;;;;;3.08;85.68;98209.06;5014823;28;20073;-77
2023/12/06 09:27:15;;;;;;;1.00;1.00;;;;;;;2.89;85.75;98208.97;5013136;28;20187;-77
2023/12/06 09:29:41;;;;;;;1.10;1.10;;;;;;;2.75;87.03;98230.22;5014679;28;20045;-77
2023/12/06 09:32:06;;;;;;;1.00;1.00;;;;;;;2.67;87.28;98221.03;5016069;28;20061;-77
2023/12/06 09:34:32;;;;;;;1.00;1.00;;;;;;;2.72;87.48;98235.34;5017096;28;20079;-77
2023/12/06 09:36:58;;;;;;;1.05;1.05;;;;;;;2.68;88.03;98233.34;5013990;28;20507;-77
2023/12/06 09:39:24;;;;;;;1.10;1.10;;;;;;;2.64;87.82;98236.69;5015390;28;20064;-76
2023/12/06 09:41:49;;;;;;;1.00;1.00;;;;;;;2.61;88.79;98238.25;5014306;28;20378;-77
2023/12/06 09:44:16;;;;;;;0.90;0.90;;;;;;;2.70;88.46;98231.72;5017562;28;20429;-77
2023/12/06 09:46:43;;;;;;;1.08;1.08;;;;;;;2.74;88.64;98244.22;5014726;28;20546;-77
2023/12/06 09:49:09;;;;;;;1.10;1.10;;;;;;;2.73;88.96;98244.13;5014666;28;20046;-79
2023/12/06 09:51:35;;;;;;;1.00;1.00;;;;;;;2.74;89.20;98249.50;5014742;28;20119;-78
2023/12/06 09:54:00;;;;;;;1.10;1.10;;;;;;;2.75;89.24;98245.13;5015241;28;20163;-78
2023/12/06 09:56:27;;;;;;;1.00;1.00;;;;;;;2.78;89.03;98246.22;5013206;28;20044;-77
2023/12/06 09:58:52;;;;;;;0.90;0.90;;;;;;;2.83;89.15;98243.81;5016737;28;20216;-77
2023/12/06 10:01:18;;;;;;;1.10;1.10;;;;;;;2.85;88.87;98247.41;5014619;28;20038;-79
2023/12/06 10:03:43;;;;;;;1.02;1.02;;;;;;;2.85;89.24;98244.78;5012944;28;20487;-78
2023/12/06 10:06:09;;;;;;;1.00;1.00;;;;;;;2.91;89.50;98242.44;5016090;28;20069;-79
2023/12/06 10:08:35;;;;;;;1.00;1.00;;;;;;;2.86;89.34;98245.69;5014571;28;20044;-79
2023/12/06 10:11:05;;;;;;;1.10;1.10;;;;;;;2.84;89.66;98250.88;5013000;28;20776;-79
2023/12/06 10:13:35;;;;;;;1.00;1.00;;;;;;;2.95;89.87;98254.97;5016565;28;20038;-79
2023/12/06 10:16:01;;;;;;;1.00;1.00;;;;;;;2.93;89.87;98258.34;5014631;28;20495;-78
2023/12/06 10:18:27;;;;;;;1.00;1.00;;;;;;;3.01;89.54;98257.00;5011980;28;20041;-79
2023/12/06 10:20:52;;;;;;;1.08;1.08;;;;;;;3.05;88.84;98257.22;5012403;28;20411;-79
2023/12/06 10:23:18;;;;;;;1.05;1.05;;;;;;;2.97;88.64;98266.50;5015386;28;20149;-78
2023/12/06 10:25:50;;;;;;;1.00;1.00;;;;;;;2.93;88.05;98261.00;5019961;28;20627;-78
2023/12/06 10:28:18;;;;;;;1.00;1.00;;;;;;;2.89;88.30;98267.81;5015700;28;20559;-81
2023/12/06 10:30:43;;;;;;;1.00;1.00;;;;;;;2.92;88.26;98274.97;5012983;28;20077;-80
2023/12/06 10:33:11;;;;;;;1.05;1.05;;;;;;;2.94;88.40;98276.88;5014146;28;20133;-79
2023/12/06 10:35:37;;;;;;;1.08;1.08;;;;;;;2.99;88.47;98272.75;5011792;28;20057;-79
2023/12/06 10:38:03;;;;;;;1.10;1.10;;;;;;;2.90;88.50;98267.00;5014914;28;20029;-80
2023/12/06 10:40:32;;;;;;;1.00;1.00;;;;;;;2.93;88.20;98276.81;5015040;28;20064;-78
2023/12/06 10:43:04;;;;;;;1.10;1.10;;;;;;;2.91;88.34;98273.16;5013175;28;20033;-78
2023/12/06 10:45:32;;;;;;;1.10;1.10;;;;;;;2.86;88.50;98270.28;5021150;28;20133;-78
2023/12/06 10:47:59;;;;;;;1.10;1.10;;;;;;;2.90;88.69;98271.38;5012321;28;20033;-77
2023/12/06 10:50:25;;;;;;;1.00;1.00;;;;;;;2.87;89.45;98268.56;5012677;28;20038;-77
2023/12/06 10:52:53;;;;;;;1.00;1.00;;;;;;;2.97;88.67;98273.47;5012622;28;20118;-77
2023/12/06 10:55:20;;;;;;;1.00;1.00;;;;;;;2.96;88.40;98264.66;5013088;28;20048;-77
2023/12/06 10:57:46;;;;;;;1.10;1.10;;;;;;;3.00;88.57;98271.91;5011918;28;20061;-76
2023/12/06 11:00:13;;;;;;;1.10;1.10;;;;;;;2.94;88.73;98279.50;5013334;28;20087;-78
2023/12/06 11:02:39;;;;;;;1.00;1.00;;;;;;;2.93;88.09;98275.06;5011374;28;20041;-78
2023/12/06 11:05:10;;;;;;;1.00;1.00;;;;;;;2.93;88.13;98271.53;5016593;28;20156;-78
2023/12/06 11:07:48;;;;;;;1.02;1.02;;;;;;;2.95;87.89;98272.50;5015550;28;20038;-77
2023/12/06 11:10:59;;;;;;;0.90;0.90;;;;;;;2.89;88.22;98274.81;5013825;28;20076;-78
2023/12/06 11:13:37;;;;;;;1.00;1.00;;;;;;;2.90;88.30;98274.00;5010970;28;20072;-78
2023/12/06 11:16:21;;;;;;;1.02;1.02;;;;;;;2.88;88.47;98276.56;5010828;28;20038;-79
2023/12/06 11:18:49;;;;;;;1.10;1.10;;;;;;;2.89;88.34;98274.81;5018147;28;20045;-79
2023/12/06 11:21:18;;;;;;;1.00;1.00;;;;;;;2.90;88.17;98285.44;5014718;28;20057;-78
2023/12/06 11:23:46;;;;;;;1.00;1.00;;;;;;;2.89;87.88;98282.72;5012073;28;20041;-78
2023/12/06 11:26:12;;;;;;;1.08;1.08;;;;;;;2.83;88.21;98285.97;5020147;28;20407;-78
2023/12/06 11:28:41;;;;;;;0.98;0.98;;;;;;;2.90;88.18;98285.44;5019977;28;20563;-78
2023/12/06 11:31:12;;;;;;;1.00;1.00;;;;;;;2.94;87.50;98286.50;5011254;28;20128;-78
2023/12/06 11:33:37;;;;;;;1.00;1.00;;;;;;;2.92;87.61;98283.78;5011608;28;20042;-78
2023/12/06 11:36:03;;;;;;;1.00;1.00;;;;;;;2.88;87.76;98288.84;5013254;28;20432;-78